sensor_id;sensor_type;location;lat;lon;timestamp;P1;durP1;ratioP1;P2;durP2;ratioP2
14734;SDS011;7458;49.002;8.472;2022-07-29T00:00:09;5.38;;;4.65;;
14734;SDS011;7458;49.002;8.472;2022-07-29T00:02:36;5.38;;;4.88;;
14734;SDS011;7458;49.002;8.472;2022-07-29T00:05:02;6.43;;;5.63;;
14734;SDS011;7458;49.002;8.472;2022-07-29T00:07:30;7.05;;;5.90;;
14734;SDS011;7458;49.002;8.472;2022-07-29T00:09:56;5.20;;;4.75;;
14734;SDS011;7458;49.002;8.472;2022-07-29T00:12:22;5.63;;;4.78;;
14734;SDS011;7458;49.002;8.472;2022-07-29T00:14:49;5.88;;;4.85;;
14734;SDS011;7458;49.002;8.472;2022-07-29T00:17:15;6.15;;;5.55;;
14734;SDS011;7458;49.002;8.472;2022-07-29T00:19:41;7.13;;;5.90;;
14734;SDS011;7458;49.002;8.472;2022-07-29T00:22:07;6.63;;;6.03;;
14734;SDS011;7458;49.002;8.472;2022-07-29T00:24:33;5.90;;;5.40;;
14734;SDS011;7458;49.002;8.472;2022-07-29T00:26:58;7.50;;;5.80;;
14734;SDS011;7458;49.002;8.472;2022-07-29T00:29:24;7.93;;;7.13;;
14734;SDS011;7458;49.002;8.472;2022-07-29T00:31:50;7.97;;;6.28;;
14734;SDS011;7458;49.002;8.472;2022-07-29T00:34:16;5.13;;;4.72;;
14734;SDS011;7458;49.002;8.472;2022-07-29T00:37:00;6.57;;;5.97;;
14734;SDS011;7458;49.002;8.472;2022-07-29T00:39:26;5.97;;;5.38;;
14734;SDS011;7458;49.002;8.472;2022-07-29T00:41:52;5.78;;;5.28;;
14734;SDS011;7458;49.002;8.472;2022-07-29T00:44:18;8.15;;;4.97;;
14734;SDS011;7458;49.002;8.472;2022-07-29T00:46:44;6.93;;;6.22;;
14734;SDS011;7458;49.002;8.472;2022-07-29T00:49:10;7.05;;;5.55;;
14734;SDS011;7458;49.002;8.472;2022-07-29T00:51:36;6.57;;;5.97;;
14734;SDS011;7458;49.002;8.472;2022-07-29T00:54:03;8.05;;;6.18;;
14734;SDS011;7458;49.002;8.472;2022-07-29T00:56:30;6.45;;;5.70;;
14734;SDS011;7458;49.002;8.472;2022-07-29T00:58:57;9.52;;;5.80;;
14734;SDS011;7458;49.002;8.472;2022-07-29T01:01:24;6.03;;;5.28;;
14734;SDS011;7458;49.002;8.472;2022-07-29T01:03:50;5.65;;;5.15;;
14734;SDS011;7458;49.002;8.472;2022-07-29T01:06:16;7.47;;;5.20;;
14734;SDS011;7458;49.002;8.472;2022-07-29T01:08:45;6.63;;;6.03;;
14734;SDS011;7458;49.002;8.472;2022-07-29T01:11:14;6.15;;;5.57;;
14734;SDS011;7458;49.002;8.472;2022-07-29T01:13:42;7.68;;;5.75;;
14734;SDS011;7458;49.002;8.472;2022-07-29T01:16:13;6.32;;;5.45;;
14734;SDS011;7458;49.002;8.472;2022-07-29T01:18:50;6.00;;;5.43;;
14734;SDS011;7458;49.002;8.472;2022-07-29T01:30:09;6.20;;;5.70;;
14734;SDS011;7458;49.002;8.472;2022-07-29T01:32:36;7.22;;;6.53;;
14734;SDS011;7458;49.002;8.472;2022-07-29T01:35:39;11.40;;;6.40;;
14734;SDS011;7458;49.002;8.472;2022-07-29T01:38:08;5.88;;;5.30;;
14734;SDS011;7458;49.002;8.472;2022-07-29T01:40:49;6.75;;;6.15;;
14734;SDS011;7458;49.002;8.472;2022-07-29T01:43:20;6.25;;;5.63;;
14734;SDS011;7458;49.002;8.472;2022-07-29T01:46:36;5.50;;;5.00;;
14734;SDS011;7458;49.002;8.472;2022-07-29T01:51:47;9.63;;;6.15;;
14734;SDS011;7458;49.002;8.472;2022-07-29T01:55:02;6.53;;;4.93;;
14734;SDS011;7458;49.002;8.472;2022-07-29T01:59:45;7.13;;;5.63;;
14734;SDS011;7458;49.002;8.472;2022-07-29T02:02:16;6.43;;;5.75;;
14734;SDS011;7458;49.002;8.472;2022-07-29T02:04:45;7.43;;;5.10;;
14734;SDS011;7458;49.002;8.472;2022-07-29T02:07:15;6.88;;;6.10;;
14734;SDS011;7458;49.002;8.472;2022-07-29T02:09:46;6.50;;;5.55;;
14734;SDS011;7458;49.002;8.472;2022-07-29T02:12:16;6.70;;;6.10;;
14734;SDS011;7458;49.002;8.472;2022-07-29T02:14:48;10.23;;;5.93;;
14734;SDS011;7458;49.002;8.472;2022-07-29T02:17:21;7.18;;;5.57;;
14734;SDS011;7458;49.002;8.472;2022-07-29T02:19:52;8.38;;;6.45;;
14734;SDS011;7458;49.002;8.472;2022-07-29T02:22:24;6.60;;;6.00;;
14734;SDS011;7458;49.002;8.472;2022-07-29T02:24:55;6.85;;;6.20;;
14734;SDS011;7458;49.002;8.472;2022-07-29T02:27:23;5.88;;;5.20;;
14734;SDS011;7458;49.002;8.472;2022-07-29T02:29:52;6.82;;;6.18;;
14734;SDS011;7458;49.002;8.472;2022-07-29T02:32:19;7.55;;;6.18;;
14734;SDS011;7458;49.002;8.472;2022-07-29T02:34:49;6.13;;;5.53;;
14734;SDS011;7458;49.002;8.472;2022-07-29T02:37:17;6.90;;;6.30;;
14734;SDS011;7458;49.002;8.472;2022-07-29T02:39:44;6.07;;;5.47;;
14734;SDS011;7458;49.002;8.472;2022-07-29T02:42:14;7.13;;;5.85;;
14734;SDS011;7458;49.002;8.472;2022-07-29T02:44:43;7.20;;;6.50;;
14734;SDS011;7458;49.002;8.472;2022-07-29T02:52:40;5.97;;;5.38;;
14734;SDS011;7458;49.002;8.472;2022-07-29T02:55:18;6.32;;;5.72;;
14734;SDS011;7458;49.002;8.472;2022-07-29T02:57:56;7.10;;;5.90;;
14734;SDS011;7458;49.002;8.472;2022-07-29T03:00:45;5.72;;;5.22;;
14734;SDS011;7458;49.002;8.472;2022-07-29T03:03:14;7.00;;;6.40;;
14734;SDS011;7458;49.002;8.472;2022-07-29T03:05:46;7.18;;;5.65;;
14734;SDS011;7458;49.002;8.472;2022-07-29T03:08:12;7.65;;;5.75;;
14734;SDS011;7458;49.002;8.472;2022-07-29T03:10:41;6.78;;;6.07;;
14734;SDS011;7458;49.002;8.472;2022-07-29T03:13:10;8.90;;;5.32;;
14734;SDS011;7458;49.002;8.472;2022-07-29T03:15:38;7.75;;;6.75;;
14734;SDS011;7458;49.002;8.472;2022-07-29T03:18:07;6.20;;;5.30;;
14734;SDS011;7458;49.002;8.472;2022-07-29T03:20:34;6.60;;;5.97;;
14734;SDS011;7458;49.002;8.472;2022-07-29T03:23:00;6.43;;;5.82;;
14734;SDS011;7458;49.002;8.472;2022-07-29T03:25:26;6.78;;;6.10;;
14734;SDS011;7458;49.002;8.472;2022-07-29T03:27:52;9.27;;;7.32;;
14734;SDS011;7458;49.002;8.472;2022-07-29T03:30:18;6.78;;;5.85;;
14734;SDS011;7458;49.002;8.472;2022-07-29T03:32:44;8.90;;;6.00;;
14734;SDS011;7458;49.002;8.472;2022-07-29T03:35:09;6.78;;;6.07;;
14734;SDS011;7458;49.002;8.472;2022-07-29T03:37:35;6.97;;;6.38;;
14734;SDS011;7458;49.002;8.472;2022-07-29T03:40:02;6.75;;;6.15;;
14734;SDS011;7458;49.002;8.472;2022-07-29T03:42:32;7.97;;;6.57;;
14734;SDS011;7458;49.002;8.472;2022-07-29T03:45:03;7.15;;;6.22;;
14734;SDS011;7458;49.002;8.472;2022-07-29T03:47:35;7.63;;;6.35;;
14734;SDS011;7458;49.002;8.472;2022-07-29T03:50:08;9.75;;;6.97;;
14734;SDS011;7458;49.002;8.472;2022-07-29T03:52:38;7.15;;;6.35;;
14734;SDS011;7458;49.002;8.472;2022-07-29T03:55:04;8.15;;;6.55;;
14734;SDS011;7458;49.002;8.472;2022-07-29T03:57:31;8.55;;;6.55;;
14734;SDS011;7458;49.002;8.472;2022-07-29T04:00:01;8.52;;;6.60;;
14734;SDS011;7458;49.002;8.472;2022-07-29T04:02:30;6.85;;;6.25;;
14734;SDS011;7458;49.002;8.472;2022-07-29T04:04:57;8.95;;;6.43;;
14734;SDS011;7458;49.002;8.472;2022-07-29T04:07:23;7.28;;;6.57;;
14734;SDS011;7458;49.002;8.472;2022-07-29T04:09:49;6.75;;;6.10;;
14734;SDS011;7458;49.002;8.472;2022-07-29T04:12:14;9.75;;;8.85;;
14734;SDS011;7458;49.002;8.472;2022-07-29T04:14:40;11.20;;;7.38;;
14734;SDS011;7458;49.002;8.472;2022-07-29T04:17:06;7.95;;;7.15;;
14734;SDS011;7458;49.002;8.472;2022-07-29T04:19:32;6.40;;;5.80;;
14734;SDS011;7458;49.002;8.472;2022-07-29T04:21:59;6.63;;;5.95;;
14734;SDS011;7458;49.002;8.472;2022-07-29T04:24:26;10.43;;;8.23;;
14734;SDS011;7458;49.002;8.472;2022-07-29T04:26:52;7.05;;;6.35;;
14734;SDS011;7458;49.002;8.472;2022-07-29T04:29:18;7.03;;;6.32;;
14734;SDS011;7458;49.002;8.472;2022-07-29T04:31:44;7.75;;;6.97;;
14734;SDS011;7458;49.002;8.472;2022-07-29T04:34:11;9.68;;;6.70;;
14734;SDS011;7458;49.002;8.472;2022-07-29T04:36:37;9.48;;;7.88;;
14734;SDS011;7458;49.002;8.472;2022-07-29T04:39:03;9.52;;;6.80;;
14734;SDS011;7458;49.002;8.472;2022-07-29T04:41:29;7.40;;;6.80;;
14734;SDS011;7458;49.002;8.472;2022-07-29T04:43:55;6.47;;;5.88;;
14734;SDS011;7458;49.002;8.472;2022-07-29T04:46:21;11.95;;;7.57;;
14734;SDS011;7458;49.002;8.472;2022-07-29T04:48:48;8.77;;;6.75;;
14734;SDS011;7458;49.002;8.472;2022-07-29T04:51:14;9.13;;;7.15;;
14734;SDS011;7458;49.002;8.472;2022-07-29T04:53:40;8.10;;;7.28;;
14734;SDS011;7458;49.002;8.472;2022-07-29T04:56:06;8.60;;;7.20;;
14734;SDS011;7458;49.002;8.472;2022-07-29T04:58:35;16.52;;;7.97;;
14734;SDS011;7458;49.002;8.472;2022-07-29T05:01:01;13.85;;;7.57;;
14734;SDS011;7458;49.002;8.472;2022-07-29T05:03:28;13.85;;;8.35;;
14734;SDS011;7458;49.002;8.472;2022-07-29T05:05:54;7.82;;;6.90;;
14734;SDS011;7458;49.002;8.472;2022-07-29T05:08:20;9.00;;;6.88;;
14734;SDS011;7458;49.002;8.472;2022-07-29T05:10:46;7.75;;;6.95;;
14734;SDS011;7458;49.002;8.472;2022-07-29T05:13:12;7.82;;;6.88;;
14734;SDS011;7458;49.002;8.472;2022-07-29T05:15:37;8.73;;;7.55;;
14734;SDS011;7458;49.002;8.472;2022-07-29T05:18:03;8.80;;;7.90;;
14734;SDS011;7458;49.002;8.472;2022-07-29T05:20:30;10.25;;;8.77;;
14734;SDS011;7458;49.002;8.472;2022-07-29T05:22:57;9.65;;;7.93;;
14734;SDS011;7458;49.002;8.472;2022-07-29T05:25:25;9.93;;;8.18;;
14734;SDS011;7458;49.002;8.472;2022-07-29T05:27:52;8.77;;;7.95;;
14734;SDS011;7458;49.002;8.472;2022-07-29T05:30:19;11.95;;;9.05;;
14734;SDS011;7458;49.002;8.472;2022-07-29T05:32:46;8.23;;;7.47;;
14734;SDS011;7458;49.002;8.472;2022-07-29T05:35:13;10.43;;;7.15;;
14734;SDS011;7458;49.002;8.472;2022-07-29T05:37:40;10.05;;;8.32;;
14734;SDS011;7458;49.002;8.472;2022-07-29T05:40:06;12.02;;;7.82;;
14734;SDS011;7458;49.002;8.472;2022-07-29T05:42:33;8.40;;;7.55;;
14734;SDS011;7458;49.002;8.472;2022-07-29T05:45:00;9.55;;;7.88;;
14734;SDS011;7458;49.002;8.472;2022-07-29T05:47:27;13.65;;;8.52;;
14734;SDS011;7458;49.002;8.472;2022-07-29T05:49:52;19.38;;;8.80;;
14734;SDS011;7458;49.002;8.472;2022-07-29T05:52:19;12.00;;;8.82;;
14734;SDS011;7458;49.002;8.472;2022-07-29T05:54:46;8.95;;;8.18;;
14734;SDS011;7458;49.002;8.472;2022-07-29T05:57:18;9.48;;;8.45;;
14734;SDS011;7458;49.002;8.472;2022-07-29T05:59:46;9.98;;;8.05;;
14734;SDS011;7458;49.002;8.472;2022-07-29T06:02:13;13.88;;;9.15;;
14734;SDS011;7458;49.002;8.472;2022-07-29T06:04:39;11.02;;;7.85;;
14734;SDS011;7458;49.002;8.472;2022-07-29T06:07:05;11.63;;;9.10;;
14734;SDS011;7458;49.002;8.472;2022-07-29T06:09:31;13.32;;;8.25;;
14734;SDS011;7458;49.002;8.472;2022-07-29T06:11:58;11.80;;;8.85;;
14734;SDS011;7458;49.002;8.472;2022-07-29T06:14:24;9.23;;;8.30;;
14734;SDS011;7458;49.002;8.472;2022-07-29T06:16:51;11.35;;;8.10;;
14734;SDS011;7458;49.002;8.472;2022-07-29T06:19:18;10.32;;;9.30;;
14734;SDS011;7458;49.002;8.472;2022-07-29T06:21:43;8.48;;;7.68;;
14734;SDS011;7458;49.002;8.472;2022-07-29T06:24:11;13.48;;;8.73;;
14734;SDS011;7458;49.002;8.472;2022-07-29T06:26:38;12.60;;;6.57;;
14734;SDS011;7458;49.002;8.472;2022-07-29T06:29:06;20.50;;;7.28;;
14734;SDS011;7458;49.002;8.472;2022-07-29T06:31:32;10.77;;;7.97;;
14734;SDS011;7458;49.002;8.472;2022-07-29T06:33:58;8.60;;;6.72;;
14734;SDS011;7458;49.002;8.472;2022-07-29T06:36:23;11.15;;;8.30;;
14734;SDS011;7458;49.002;8.472;2022-07-29T06:38:49;8.77;;;7.88;;
14734;SDS011;7458;49.002;8.472;2022-07-29T06:41:15;9.48;;;7.13;;
14734;SDS011;7458;49.002;8.472;2022-07-29T06:43:42;7.70;;;7.00;;
14734;SDS011;7458;49.002;8.472;2022-07-29T06:46:13;12.40;;;7.35;;
14734;SDS011;7458;49.002;8.472;2022-07-29T06:48:42;11.75;;;7.07;;
14734;SDS011;7458;49.002;8.472;2022-07-29T06:51:09;11.25;;;7.10;;
14734;SDS011;7458;49.002;8.472;2022-07-29T06:53:36;9.15;;;6.75;;
14734;SDS011;7458;49.002;8.472;2022-07-29T06:56:03;8.73;;;7.65;;
14734;SDS011;7458;49.002;8.472;2022-07-29T06:58:33;8.13;;;6.47;;
14734;SDS011;7458;49.002;8.472;2022-07-29T07:01:03;7.40;;;5.13;;
14734;SDS011;7458;49.002;8.472;2022-07-29T07:03:34;9.07;;;5.93;;
14734;SDS011;7458;49.002;8.472;2022-07-29T07:05:59;9.20;;;6.72;;
14734;SDS011;7458;49.002;8.472;2022-07-29T07:08:25;6.43;;;5.70;;
14734;SDS011;7458;49.002;8.472;2022-07-29T07:10:52;12.48;;;5.68;;
14734;SDS011;7458;49.002;8.472;2022-07-29T07:13:18;6.57;;;5.20;;
14734;SDS011;7458;49.002;8.472;2022-07-29T07:15:45;5.43;;;4.93;;
14734;SDS011;7458;49.002;8.472;2022-07-29T07:18:13;5.82;;;4.97;;
14734;SDS011;7458;49.002;8.472;2022-07-29T07:20:40;6.90;;;6.30;;
14734;SDS011;7458;49.002;8.472;2022-07-29T07:23:07;7.60;;;5.65;;
14734;SDS011;7458;49.002;8.472;2022-07-29T07:25:33;8.93;;;6.78;;
14734;SDS011;7458;49.002;8.472;2022-07-29T07:27:59;7.60;;;6.82;;
14734;SDS011;7458;49.002;8.472;2022-07-29T07:30:25;14.18;;;6.32;;
14734;SDS011;7458;49.002;8.472;2022-07-29T07:32:55;6.68;;;6.07;;
14734;SDS011;7458;49.002;8.472;2022-07-29T07:35:21;7.47;;;6.85;;
14734;SDS011;7458;49.002;8.472;2022-07-29T07:37:47;9.43;;;6.07;;
14734;SDS011;7458;49.002;8.472;2022-07-29T07:40:13;12.82;;;7.57;;
14734;SDS011;7458;49.002;8.472;2022-07-29T07:42:39;10.82;;;6.47;;
14734;SDS011;7458;49.002;8.472;2022-07-29T07:45:06;11.20;;;6.35;;
14734;SDS011;7458;49.002;8.472;2022-07-29T07:47:37;10.73;;;6.30;;
14734;SDS011;7458;49.002;8.472;2022-07-29T07:50:04;6.68;;;5.97;;
14734;SDS011;7458;49.002;8.472;2022-07-29T07:52:32;11.55;;;6.13;;
14734;SDS011;7458;49.002;8.472;2022-07-29T07:54:58;9.38;;;5.75;;
14734;SDS011;7458;49.002;8.472;2022-07-29T07:57:26;7.30;;;5.32;;
14734;SDS011;7458;49.002;8.472;2022-07-29T07:59:52;6.35;;;5.70;;
14734;SDS011;7458;49.002;8.472;2022-07-29T08:02:18;7.10;;;6.57;;
14734;SDS011;7458;49.002;8.472;2022-07-29T08:04:43;8.82;;;5.18;;
14734;SDS011;7458;49.002;8.472;2022-07-29T08:07:09;8.10;;;4.10;;
14734;SDS011;7458;49.002;8.472;2022-07-29T08:09:35;6.72;;;5.53;;
14734;SDS011;7458;49.002;8.472;2022-07-29T08:12:01;10.60;;;4.70;;
14734;SDS011;7458;49.002;8.472;2022-07-29T08:14:29;5.72;;;5.13;;
14734;SDS011;7458;49.002;8.472;2022-07-29T08:16:56;9.68;;;5.57;;
14734;SDS011;7458;49.002;8.472;2022-07-29T08:19:22;6.00;;;5.35;;
14734;SDS011;7458;49.002;8.472;2022-07-29T08:21:48;14.88;;;5.43;;
14734;SDS011;7458;49.002;8.472;2022-07-29T08:24:13;5.90;;;5.25;;
14734;SDS011;7458;49.002;8.472;2022-07-29T08:26:58;10.17;;;5.80;;
14734;SDS011;7458;49.002;8.472;2022-07-29T08:29:23;13.25;;;5.57;;
14734;SDS011;7458;49.002;8.472;2022-07-29T08:31:49;7.18;;;6.03;;
14734;SDS011;7458;49.002;8.472;2022-07-29T08:34:15;6.55;;;5.22;;
14734;SDS011;7458;49.002;8.472;2022-07-29T08:36:41;5.68;;;5.07;;
14734;SDS011;7458;49.002;8.472;2022-07-29T08:39:07;11.25;;;5.70;;
14734;SDS011;7458;49.002;8.472;2022-07-29T08:41:35;6.80;;;4.75;;
14734;SDS011;7458;49.002;8.472;2022-07-29T08:44:05;4.80;;;4.32;;
14734;SDS011;7458;49.002;8.472;2022-07-29T08:46:37;5.83;;;5.27;;
14734;SDS011;7458;49.002;8.472;2022-07-29T08:49:06;5.35;;;4.78;;
14734;SDS011;7458;49.002;8.472;2022-07-29T08:51:32;5.30;;;4.15;;
14734;SDS011;7458;49.002;8.472;2022-07-29T08:54:01;6.25;;;4.50;;
14734;SDS011;7458;49.002;8.472;2022-07-29T08:56:28;9.40;;;5.25;;
14734;SDS011;7458;49.002;8.472;2022-07-29T08:58:55;8.82;;;5.32;;
14734;SDS011;7458;49.002;8.472;2022-07-29T09:01:24;7.07;;;4.75;;
14734;SDS011;7458;49.002;8.472;2022-07-29T09:03:56;6.32;;;5.05;;
14734;SDS011;7458;49.002;8.472;2022-07-29T09:06:26;6.72;;;4.28;;
14734;SDS011;7458;49.002;8.472;2022-07-29T09:08:59;12.10;;;4.20;;
14734;SDS011;7458;49.002;8.472;2022-07-29T09:11:26;6.03;;;4.50;;
14734;SDS011;7458;49.002;8.472;2022-07-29T09:13:53;8.82;;;4.38;;
14734;SDS011;7458;49.002;8.472;2022-07-29T09:16:19;4.68;;;4.25;;
14734;SDS011;7458;49.002;8.472;2022-07-29T09:18:45;8.75;;;5.65;;
14734;SDS011;7458;49.002;8.472;2022-07-29T09:21:13;5.43;;;4.07;;
14734;SDS011;7458;49.002;8.472;2022-07-29T09:24:08;9.75;;;5.07;;
14734;SDS011;7458;49.002;8.472;2022-07-29T09:26:40;17.25;;;5.13;;
14734;SDS011;7458;49.002;8.472;2022-07-29T09:29:15;8.88;;;5.05;;
14734;SDS011;7458;49.002;8.472;2022-07-29T09:31:45;5.28;;;4.78;;
14734;SDS011;7458;49.002;8.472;2022-07-29T09:34:36;10.38;;;4.65;;
14734;SDS011;7458;49.002;8.472;2022-07-29T09:37:00;4.88;;;3.75;;
14734;SDS011;7458;49.002;8.472;2022-07-29T09:39:28;12.60;;;5.55;;
14734;SDS011;7458;49.002;8.472;2022-07-29T09:42:02;5.87;;;5.10;;
14734;SDS011;7458;49.002;8.472;2022-07-29T09:47:13;6.82;;;5.15;;
14734;SDS011;7458;49.002;8.472;2022-07-29T09:52:20;5.32;;;4.40;;
14734;SDS011;7458;49.002;8.472;2022-07-29T09:54:46;7.57;;;5.53;;
14734;SDS011;7458;49.002;8.472;2022-07-29T09:57:26;8.80;;;4.82;;
14734;SDS011;7458;49.002;8.472;2022-07-29T09:59:56;5.13;;;4.40;;
14734;SDS011;7458;49.002;8.472;2022-07-29T10:02:41;14.10;;;5.15;;
14734;SDS011;7458;49.002;8.472;2022-07-29T10:05:22;5.18;;;4.68;;
14734;SDS011;7458;49.002;8.472;2022-07-29T10:07:52;6.50;;;4.72;;
14734;SDS011;7458;49.002;8.472;2022-07-29T10:15:27;4.70;;;4.30;;
14734;SDS011;7458;49.002;8.472;2022-07-29T10:18:02;12.07;;;5.35;;
14734;SDS011;7458;49.002;8.472;2022-07-29T10:20:28;11.30;;;6.30;;
14734;SDS011;7458;49.002;8.472;2022-07-29T10:22:54;5.97;;;4.95;;
14734;SDS011;7458;49.002;8.472;2022-07-29T10:25:20;13.30;;;5.13;;
14734;SDS011;7458;49.002;8.472;2022-07-29T10:27:48;7.68;;;4.95;;
14734;SDS011;7458;49.002;8.472;2022-07-29T10:30:16;7.88;;;4.63;;
14734;SDS011;7458;49.002;8.472;2022-07-29T10:38:36;5.90;;;4.78;;
14734;SDS011;7458;49.002;8.472;2022-07-29T10:44:22;15.43;;;4.78;;
14734;SDS011;7458;49.002;8.472;2022-07-29T10:46:50;5.68;;;4.80;;
14734;SDS011;7458;49.002;8.472;2022-07-29T10:49:21;5.35;;;4.85;;
14734;SDS011;7458;49.002;8.472;2022-07-29T10:59:40;8.35;;;4.85;;
14734;SDS011;7458;49.002;8.472;2022-07-29T11:07:30;4.65;;;4.20;;
14734;SDS011;7458;49.002;8.472;2022-07-29T11:15:21;4.25;;;3.85;;
14734;SDS011;7458;49.002;8.472;2022-07-29T11:23:28;7.90;;;4.07;;
14734;SDS011;7458;49.002;8.472;2022-07-29T11:28:48;7.18;;;3.50;;
14734;SDS011;7458;49.002;8.472;2022-07-29T11:31:50;8.32;;;4.03;;
14734;SDS011;7458;49.002;8.472;2022-07-29T11:34:27;7.03;;;3.78;;
14734;SDS011;7458;49.002;8.472;2022-07-29T11:39:38;10.32;;;3.40;;
14734;SDS011;7458;49.002;8.472;2022-07-29T11:45:00;7.50;;;3.95;;
14734;SDS011;7458;49.002;8.472;2022-07-29T11:47:32;4.72;;;3.15;;
14734;SDS011;7458;49.002;8.472;2022-07-29T11:50:03;4.82;;;3.88;;
14734;SDS011;7458;49.002;8.472;2022-07-29T11:52:34;4.25;;;3.67;;
14734;SDS011;7458;49.002;8.472;2022-07-29T11:55:11;6.53;;;4.00;;
14734;SDS011;7458;49.002;8.472;2022-07-29T11:57:46;5.95;;;4.30;;
14734;SDS011;7458;49.002;8.472;2022-07-29T12:00:27;5.22;;;3.47;;
14734;SDS011;7458;49.002;8.472;2022-07-29T12:03:02;6.50;;;4.22;;
14734;SDS011;7458;49.002;8.472;2022-07-29T12:05:41;4.70;;;4.13;;
14734;SDS011;7458;49.002;8.472;2022-07-29T12:10:47;6.78;;;4.22;;
14734;SDS011;7458;49.002;8.472;2022-07-29T12:13:16;4.78;;;4.07;;
14734;SDS011;7458;49.002;8.472;2022-07-29T12:15:54;5.82;;;3.97;;
14734;SDS011;7458;49.002;8.472;2022-07-29T12:18:23;5.00;;;4.47;;
14734;SDS011;7458;49.002;8.472;2022-07-29T12:20:56;6.88;;;4.07;;
14734;SDS011;7458;49.002;8.472;2022-07-29T12:23:30;4.97;;;4.47;;
14734;SDS011;7458;49.002;8.472;2022-07-29T12:25:57;3.78;;;3.03;;
14734;SDS011;7458;49.002;8.472;2022-07-29T12:28:24;5.03;;;3.30;;
14734;SDS011;7458;49.002;8.472;2022-07-29T12:30:50;9.70;;;3.55;;
14734;SDS011;7458;49.002;8.472;2022-07-29T12:35:51;4.22;;;3.83;;
14734;SDS011;7458;49.002;8.472;2022-07-29T12:38:21;4.00;;;3.10;;
14734;SDS011;7458;49.002;8.472;2022-07-29T12:40:48;9.18;;;3.35;;
14734;SDS011;7458;49.002;8.472;2022-07-29T12:43:19;9.35;;;4.00;;
14734;SDS011;7458;49.002;8.472;2022-07-29T12:45:53;5.43;;;3.10;;
14734;SDS011;7458;49.002;8.472;2022-07-29T12:48:36;3.47;;;2.92;;
14734;SDS011;7458;49.002;8.472;2022-07-29T12:51:06;7.30;;;3.45;;
14734;SDS011;7458;49.002;8.472;2022-07-29T12:53:34;6.63;;;3.95;;
14734;SDS011;7458;49.002;8.472;2022-07-29T12:56:01;3.30;;;3.00;;
14734;SDS011;7458;49.002;8.472;2022-07-29T12:58:41;6.15;;;2.85;;
14734;SDS011;7458;49.002;8.472;2022-07-29T13:03:44;8.73;;;3.17;;
14734;SDS011;7458;49.002;8.472;2022-07-29T13:09:10;4.80;;;3.05;;
14734;SDS011;7458;49.002;8.472;2022-07-29T13:11:40;3.83;;;3.08;;
14734;SDS011;7458;49.002;8.472;2022-07-29T13:14:14;14.95;;;3.45;;
14734;SDS011;7458;49.002;8.472;2022-07-29T13:19:53;3.20;;;2.78;;
14734;SDS011;7458;49.002;8.472;2022-07-29T13:22:34;5.10;;;3.35;;
14734;SDS011;7458;49.002;8.472;2022-07-29T13:25:01;3.58;;;3.15;;
14734;SDS011;7458;49.002;8.472;2022-07-29T13:27:37;7.88;;;3.25;;
14734;SDS011;7458;49.002;8.472;2022-07-29T13:30:08;4.75;;;2.83;;
14734;SDS011;7458;49.002;8.472;2022-07-29T13:32:35;7.05;;;2.92;;
14734;SDS011;7458;49.002;8.472;2022-07-29T13:35:04;5.07;;;3.42;;
14734;SDS011;7458;49.002;8.472;2022-07-29T13:37:33;4.53;;;2.90;;
14734;SDS011;7458;49.002;8.472;2022-07-29T13:40:03;14.35;;;2.75;;
14734;SDS011;7458;49.002;8.472;2022-07-29T13:42:33;4.45;;;2.90;;
14734;SDS011;7458;49.002;8.472;2022-07-29T13:45:00;7.20;;;3.22;;
14734;SDS011;7458;49.002;8.472;2022-07-29T13:47:26;3.97;;;2.75;;
14734;SDS011;7458;49.002;8.472;2022-07-29T13:49:53;4.85;;;2.60;;
14734;SDS011;7458;49.002;8.472;2022-07-29T13:52:19;5.97;;;3.28;;
14734;SDS011;7458;49.002;8.472;2022-07-29T13:54:45;2.75;;;2.45;;
14734;SDS011;7458;49.002;8.472;2022-07-29T13:57:17;5.25;;;3.03;;
14734;SDS011;7458;49.002;8.472;2022-07-29T13:59:43;3.50;;;2.97;;
14734;SDS011;7458;49.002;8.472;2022-07-29T14:02:09;4.65;;;2.55;;
14734;SDS011;7458;49.002;8.472;2022-07-29T14:04:37;3.45;;;2.40;;
14734;SDS011;7458;49.002;8.472;2022-07-29T14:07:03;13.23;;;4.25;;
14734;SDS011;7458;49.002;8.472;2022-07-29T14:09:29;3.70;;;2.50;;
14734;SDS011;7458;49.002;8.472;2022-07-29T14:11:55;6.57;;;2.85;;
14734;SDS011;7458;49.002;8.472;2022-07-29T14:14:22;5.63;;;2.85;;
14734;SDS011;7458;49.002;8.472;2022-07-29T14:16:47;5.07;;;3.03;;
14734;SDS011;7458;49.002;8.472;2022-07-29T14:19:13;7.00;;;3.15;;
14734;SDS011;7458;49.002;8.472;2022-07-29T14:21:39;10.07;;;2.67;;
14734;SDS011;7458;49.002;8.472;2022-07-29T14:24:05;3.95;;;2.28;;
14734;SDS011;7458;49.002;8.472;2022-07-29T14:26:31;4.03;;;2.80;;
14734;SDS011;7458;49.002;8.472;2022-07-29T14:29:00;6.78;;;2.75;;
14734;SDS011;7458;49.002;8.472;2022-07-29T14:31:34;5.32;;;3.40;;
14734;SDS011;7458;49.002;8.472;2022-07-29T14:34:00;3.88;;;2.85;;
14734;SDS011;7458;49.002;8.472;2022-07-29T14:36:26;4.90;;;3.30;;
14734;SDS011;7458;49.002;8.472;2022-07-29T14:38:52;5.07;;;2.67;;
14734;SDS011;7458;49.002;8.472;2022-07-29T14:41:18;3.13;;;2.80;;
14734;SDS011;7458;49.002;8.472;2022-07-29T14:43:43;4.25;;;2.65;;
14734;SDS011;7458;49.002;8.472;2022-07-29T14:46:09;3.45;;;2.55;;
14734;SDS011;7458;49.002;8.472;2022-07-29T14:48:35;3.67;;;2.30;;
14734;SDS011;7458;49.002;8.472;2022-07-29T14:51:01;2.70;;;2.47;;
14734;SDS011;7458;49.002;8.472;2022-07-29T14:53:26;4.05;;;2.58;;
14734;SDS011;7458;49.002;8.472;2022-07-29T14:55:52;4.57;;;3.53;;
14734;SDS011;7458;49.002;8.472;2022-07-29T14:58:18;6.38;;;3.20;;
14734;SDS011;7458;49.002;8.472;2022-07-29T15:00:46;4.13;;;2.42;;
14734;SDS011;7458;49.002;8.472;2022-07-29T15:03:11;4.03;;;2.67;;
14734;SDS011;7458;49.002;8.472;2022-07-29T15:05:37;4.78;;;2.75;;
14734;SDS011;7458;49.002;8.472;2022-07-29T15:08:03;5.38;;;3.45;;
14734;SDS011;7458;49.002;8.472;2022-07-29T15:10:29;2.60;;;1.85;;
14734;SDS011;7458;49.002;8.472;2022-07-29T15:12:55;8.38;;;2.63;;
14734;SDS011;7458;49.002;8.472;2022-07-29T15:15:21;7.28;;;2.20;;
14734;SDS011;7458;49.002;8.472;2022-07-29T15:17:47;6.80;;;2.58;;
14734;SDS011;7458;49.002;8.472;2022-07-29T15:20:13;3.50;;;2.60;;
14734;SDS011;7458;49.002;8.472;2022-07-29T15:22:39;5.18;;;2.90;;
14734;SDS011;7458;49.002;8.472;2022-07-29T15:25:07;3.03;;;2.72;;
14734;SDS011;7458;49.002;8.472;2022-07-29T15:27:33;3.20;;;2.30;;
14734;SDS011;7458;49.002;8.472;2022-07-29T15:29:59;3.83;;;2.45;;
14734;SDS011;7458;49.002;8.472;2022-07-29T15:32:24;7.30;;;3.03;;
14734;SDS011;7458;49.002;8.472;2022-07-29T15:34:51;3.13;;;2.33;;
14734;SDS011;7458;49.002;8.472;2022-07-29T15:37:16;4.45;;;3.13;;
14734;SDS011;7458;49.002;8.472;2022-07-29T15:39:42;6.03;;;2.42;;
14734;SDS011;7458;49.002;8.472;2022-07-29T15:42:08;3.72;;;2.17;;
14734;SDS011;7458;49.002;8.472;2022-07-29T15:44:34;4.07;;;2.00;;
14734;SDS011;7458;49.002;8.472;2022-07-29T15:46:59;4.25;;;2.85;;
14734;SDS011;7458;49.002;8.472;2022-07-29T15:49:37;8.38;;;2.33;;
14734;SDS011;7458;49.002;8.472;2022-07-29T15:52:06;3.47;;;2.80;;
14734;SDS011;7458;49.002;8.472;2022-07-29T15:54:38;4.15;;;2.60;;
14734;SDS011;7458;49.002;8.472;2022-07-29T15:57:05;4.15;;;2.55;;
14734;SDS011;7458;49.002;8.472;2022-07-29T15:59:32;2.80;;;2.05;;
14734;SDS011;7458;49.002;8.472;2022-07-29T16:01:59;10.75;;;2.60;;
14734;SDS011;7458;49.002;8.472;2022-07-29T16:04:26;4.10;;;2.70;;
14734;SDS011;7458;49.002;8.472;2022-07-29T16:06:52;3.78;;;3.03;;
14734;SDS011;7458;49.002;8.472;2022-07-29T16:09:18;4.05;;;2.50;;
14734;SDS011;7458;49.002;8.472;2022-07-29T16:11:44;4.63;;;2.45;;
14734;SDS011;7458;49.002;8.472;2022-07-29T16:14:12;3.65;;;2.10;;
14734;SDS011;7458;49.002;8.472;2022-07-29T16:16:38;3.78;;;2.40;;
14734;SDS011;7458;49.002;8.472;2022-07-29T16:19:05;2.75;;;2.42;;
14734;SDS011;7458;49.002;8.472;2022-07-29T16:21:33;3.63;;;2.47;;
14734;SDS011;7458;49.002;8.472;2022-07-29T16:24:00;3.35;;;1.83;;
14734;SDS011;7458;49.002;8.472;2022-07-29T16:26:26;2.88;;;2.08;;
14734;SDS011;7458;49.002;8.472;2022-07-29T16:28:52;4.13;;;2.08;;
14734;SDS011;7458;49.002;8.472;2022-07-29T16:31:18;5.57;;;2.15;;
14734;SDS011;7458;49.002;8.472;2022-07-29T16:33:47;3.72;;;2.25;;